Terminal Aerodrome Forecast
Issued by NWS

Home | Current Version | Previous Version | Text Only | Print | Product List | Glossary On
Versions: 1 2 3 4 5 6 7 8 9 10 11 12 13
000
FTUS41 KPBZ 242330
TAFBVI
TAF
KBVI 242330Z 2500/2524 23008KT P6SM BKN250
     FM250800 23008KT P6SM BKN050
     FM252100 VRB03KT P6SM BKN035
      AMD NOT SKED 2502/2512=

USA.gov is the U.S. government's official web portal to all federal, state and local government web resources and services.